createdAt,value
2023-05-09T07:01:49.069Z,101015.88
2023-05-09T07:04:51.874Z,101021.13
2023-05-09T07:07:55.213Z,101022.06
2023-05-09T07:10:58.316Z,101016.44
2023-05-09T07:14:00.736Z,101017.63
2023-05-09T07:17:21.309Z,101012.34
2023-05-09T07:20:25.793Z,101013.56
2023-05-09T07:23:28.560Z,101002.91
2023-05-09T07:26:31.028Z,101025.50
2023-05-09T07:29:33.649Z,101016.50
2023-05-09T07:32:37.561Z,101008.44
2023-05-09T07:35:40.404Z,101011.78
2023-05-09T07:38:42.856Z,100998.47
2023-05-09T07:41:47.872Z,100997.28
2023-05-09T07:44:51.217Z,100996.13
2023-05-09T07:47:55.445Z,100997.06
2023-05-09T07:50:58.340Z,100990.78
2023-05-09T07:54:01.187Z,100991.34
2023-05-09T07:57:03.550Z,100987.88
2023-05-09T08:00:07.643Z,100978.50
2023-05-09T08:03:17.205Z,100976.59
2023-05-09T08:06:20.405Z,100973.59
2023-05-09T08:09:22.832Z,100980.69
2023-05-09T08:12:25.604Z,100966.47
2023-05-09T08:15:28.139Z,100964.00
2023-05-09T08:18:32.180Z,100974.19
2023-05-09T08:21:34.558Z,100974.41
2023-05-09T08:24:37.282Z,100955.59
2023-05-09T08:27:39.693Z,100963.13
2023-05-09T08:30:42.467Z,100964.38
2023-05-09T08:33:46.260Z,100964.56
2023-05-09T08:36:49.016Z,100964.75
2023-05-09T08:39:51.672Z,100967.16
2023-05-09T08:42:54.967Z,100972.31
2023-05-09T08:46:00.390Z,100971.38
2023-05-09T08:49:07.131Z,100975.34
2023-05-09T08:52:11.337Z,100962.37
2023-05-09T08:55:14.088Z,100972.56
2023-05-09T08:58:19.173Z,100980.16
2023-05-09T09:01:21.903Z,100965.06
2023-05-09T09:04:25.838Z,100960.06
2023-05-09T09:07:30.557Z,100958.09
2023-05-09T09:10:33.819Z,100949.47
2023-05-09T09:13:36.745Z,100949.44
2023-05-09T09:16:39.131Z,100957.09
2023-05-09T09:19:44.007Z,100965.44
2023-05-09T09:22:46.450Z,100955.44
2023-05-09T09:25:49.166Z,100954.75
2023-05-09T09:28:51.578Z,100962.75
2023-05-09T09:31:55.132Z,100944.63
2023-05-09T09:35:06.951Z,100950.47
2023-05-09T09:38:09.781Z,100937.44
2023-05-09T09:41:12.560Z,100935.09
2023-05-09T09:44:16.066Z,100932.72
2023-05-09T09:47:18.512Z,100943.16
2023-05-09T09:50:25.505Z,100931.50
2023-05-09T09:53:30.586Z,100938.50
2023-05-09T09:56:41.100Z,100936.56
2023-05-09T09:59:43.453Z,100930.44
2023-05-09T10:02:53.032Z,100928.59
2023-05-09T10:06:01.101Z,100920.22
2023-05-09T10:09:03.762Z,100917.56
2023-05-09T10:12:07.531Z,100925.31
2023-05-09T10:15:10.341Z,100916.25
2023-05-09T10:18:14.631Z,100924.09
2023-05-09T10:21:18.605Z,100908.09
2023-05-09T10:24:23.954Z,100911.81
2023-05-09T10:27:27.781Z,100899.75
2023-05-09T10:30:35.051Z,100905.38
2023-05-09T10:33:43.457Z,100913.25
2023-05-09T10:36:47.539Z,100895.56
2023-05-09T10:39:53.773Z,100903.62
2023-05-09T10:42:56.935Z,100901.37
2023-05-09T10:45:59.446Z,100913.28
2023-05-09T10:49:02.662Z,100906.94
2023-05-09T10:52:06.894Z,100897.22
2023-05-09T10:55:09.874Z,100898.84
2023-05-09T10:58:23.926Z,100900.00
2023-05-09T11:01:31.627Z,100905.84
2023-05-09T11:04:34.250Z,100903.97
2023-05-09T11:07:38.333Z,100898.75
2023-05-09T11:10:41.892Z,100895.06
2023-05-09T11:13:46.303Z,100888.44
2023-05-09T11:16:57.575Z,100884.91
2023-05-09T11:20:01.411Z,100884.91
2023-05-09T11:23:06.125Z,100881.50
2023-05-09T11:26:09.053Z,100872.13
2023-05-09T11:29:12.164Z,100874.91
2023-05-09T11:32:15.868Z,100872.00
2023-05-09T11:35:20.313Z,100874.84
2023-05-09T11:38:25.625Z,100865.34
2023-05-09T11:41:28.063Z,100863.72
2023-05-09T11:44:31.792Z,100870.69
2023-05-09T11:47:35.540Z,100863.63
2023-05-09T11:50:38.333Z,100871.37
2023-05-09T11:53:45.348Z,100869.75
2023-05-09T11:56:48.017Z,100858.03
2023-05-09T11:59:50.470Z,100860.16
2023-05-09T12:02:53.453Z,100847.25
2023-05-09T12:05:56.381Z,100852.00
2023-05-09T12:09:00.055Z,100847.59
2023-05-09T12:12:03.008Z,100845.47
2023-05-09T12:15:07.341Z,100850.41
2023-05-09T12:18:10.131Z,100836.72
2023-05-09T12:21:12.709Z,100828.78
2023-05-09T12:24:24.258Z,100831.78
2023-05-09T12:27:28.314Z,100820.19
2023-05-09T12:30:31.376Z,100831.00
2023-05-09T12:33:33.847Z,100823.78
2023-05-09T12:36:37.099Z,100824.81
2023-05-09T12:39:41.657Z,100815.81
2023-05-09T12:42:45.075Z,100807.53
2023-05-09T12:45:52.257Z,100807.72
2023-05-09T12:48:55.094Z,100804.84
2023-05-09T12:51:58.240Z,100807.13
2023-05-09T12:55:05.930Z,100796.97
2023-05-09T12:58:08.446Z,100792.28
2023-05-09T13:01:11.418Z,100788.53
2023-05-09T13:04:13.881Z,100795.56
2023-05-09T13:07:16.563Z,100787.03
2023-05-09T13:10:23.844Z,100781.88
2023-05-09T13:13:27.354Z,100780.22
2023-05-09T13:16:30.201Z,100770.41
2023-05-09T13:19:39.347Z,100767.09
2023-05-09T13:22:41.886Z,100768.00
2023-05-09T13:25:46.025Z,100769.56
2023-05-09T13:28:48.327Z,100764.31
2023-05-09T13:31:51.597Z,100763.03
2023-05-09T13:34:53.940Z,100752.00
2023-05-09T13:37:58.735Z,100753.56
2023-05-09T13:41:02.501Z,100755.66
2023-05-09T13:44:06.212Z,100751.12
2023-05-09T13:47:08.681Z,100758.09
2023-05-09T13:50:11.650Z,100754.38
2023-05-09T13:53:14.131Z,100753.75
2023-05-09T13:56:18.269Z,100747.97
2023-05-09T13:59:24.573Z,100755.13
2023-05-09T14:02:27.416Z,100737.59
2023-05-09T14:05:31.359Z,100725.06
2023-05-09T14:08:34.047Z,100720.78
2023-05-09T14:11:38.225Z,100714.16
2023-05-09T14:14:40.840Z,100721.94
2023-05-09T14:17:43.665Z,100713.97
2023-05-09T14:20:46.324Z,100713.06
2023-05-09T14:23:49.649Z,100719.00
2023-05-09T14:26:53.474Z,100717.16
2023-05-09T14:29:56.532Z,100712.31
2023-05-09T14:32:59.192Z,100706.53
2023-05-09T14:36:02.882Z,100707.31
2023-05-09T14:39:06.333Z,100701.91
2023-05-09T14:42:11.563Z,100705.84
2023-05-09T14:45:15.312Z,100698.47
2023-05-09T14:48:18.070Z,100699.19
2023-05-09T14:51:20.660Z,100692.19
2023-05-09T14:54:24.061Z,100701.13
2023-05-09T14:57:28.169Z,100693.00
2023-05-09T15:00:30.982Z,100695.16
2023-05-09T15:03:33.605Z,100687.38
2023-05-09T15:06:36.529Z,100693.47
2023-05-09T15:09:39.016Z,100682.06
2023-05-09T15:12:43.231Z,100687.13
2023-05-09T15:15:45.749Z,100691.34
2023-05-09T15:18:48.461Z,100684.47
2023-05-09T15:21:51.601Z,100676.53
2023-05-09T15:24:54.487Z,100677.72
2023-05-09T15:27:59.370Z,100673.69
2023-05-09T15:31:03.361Z,100683.09
2023-05-09T15:34:05.516Z,100673.53
2023-05-09T15:37:08.103Z,100676.28
2023-05-09T15:40:11.069Z,100659.56
2023-05-09T15:43:15.131Z,100650.37
2023-05-09T15:46:17.590Z,100646.59
2023-05-09T15:49:20.207Z,100646.91
2023-05-09T15:52:22.765Z,100641.38
2023-05-09T15:55:27.439Z,100638.53
2023-05-09T15:58:32.548Z,100641.91
2023-05-09T16:01:35.524Z,100646.81
2023-05-09T16:04:38.563Z,100635.94
2023-05-09T16:07:42.839Z,100641.38
